Aeroporto :
LOGIN :

Iscrizione | Disclaimer

   EN    FR    IT 

 










Sommario :    VFR   VFR Marginale   IFR   IFR Intensivo   IFR Molto Intensivo
Visibilità : 
Base nubi : 
>= 8 km
>= 3000ft
5 / 8 km
1000 / 3000 ft
1500m / 5 km
500 / 1000 ft
800 / 1500m
200 / 500 ft
< 800m
< 200 ft
Simboli :   Temporali  Nebbia  Neve Forte  Precipitazioni Forti  Vento > 20 kt
SIGMETs :   Varie  Temporali  Ghiacco  Turbolenza  Onda orograficha  Ceneri Vulcaniche






- Altitudine del aeroporto : 160 ft
- Codice IATA : FMO


EDDG - Münster Osnabrück Int.

ULTIMO METAR :
  • 081150Z VRB03KT CAVOK 34/12 Q1019 NOSIG

METARs OBSOLETI :
  • 081120Z VRB04KT CAVOK 34/13 Q1019 NOSIG
  • 081050Z VRB05KT CAVOK 33/13 Q1019 NOSIG
  • 081020Z VRB05KT CAVOK 33/13 Q1019 NOSIG
  • 080950Z 01006KT 320V050 CAVOK 32/14 Q1019 NOSIG
  • 080920Z 36004KT 290V070 CAVOK 32/15 Q1020 NOSIG
  • 080850Z VRB03KT CAVOK 30/15 Q1020 NOSIG

TAF TAF EDDG
Valido dal 08 a 12 ore il 09 a 12 ore UTC


081100Z 0812/0912 01006KT CAVOK
BECMG 0820/0823 VRB03KT
BECMG 0906/0909 04007KT



MetMap, La meteo Aeronautica in un colpo d'occhio ! - Copyright ORBIFLY Dicembre 2007 - Disclaimer

ORBIFLY MET'MAP TEAM :

Programmazione e sviluppo : Alexandra Zaïnal
Concezione : Baudouin d'Aumeries
Aiuto per la programmazione : Marc-Olivier Méhu
Supporto tecnico e logistico : Manuel Goepfert
Aiuto per la traduzione : Arnaldo La Scala

Contatto : metmap@orbifly.com




FONTI E CREDITI :

   NOAA